createdAt,value
2019-03-15T00:00:00.278Z,12.05
2019-03-15T00:01:00.067Z,12.09
2019-03-15T00:01:59.988Z,12.14
2019-03-15T00:02:59.906Z,12.12
2019-03-15T00:03:59.845Z,12.12
2019-03-15T00:04:59.776Z,12.10
2019-03-15T00:05:59.702Z,12.10
2019-03-15T00:06:59.628Z,12.20
2019-03-15T00:07:59.546Z,12.05
2019-03-15T00:08:59.481Z,12.16
2019-03-15T00:09:59.422Z,12.17
2019-03-15T00:10:59.337Z,12.13
2019-03-15T00:11:59.252Z,12.10
2019-03-15T00:12:59.174Z,12.05
2019-03-15T00:13:59.109Z,12.04
2019-03-15T00:14:59.028Z,11.85
2019-03-15T00:15:58.968Z,11.90
2019-03-15T00:16:58.899Z,11.90
2019-03-15T00:17:58.826Z,11.78
2019-03-15T00:18:58.749Z,11.57
2019-03-15T00:19:58.666Z,11.69
2019-03-15T00:20:58.592Z,11.79
2019-03-15T00:21:58.520Z,11.83
2019-03-15T00:22:58.444Z,11.83
2019-03-15T00:23:58.381Z,11.85
2019-03-15T00:24:58.310Z,11.83
2019-03-15T00:25:58.228Z,11.83
2019-03-15T00:26:58.176Z,11.86
2019-03-15T00:27:58.090Z,11.90
2019-03-15T00:28:58.024Z,11.88
2019-03-15T00:29:57.944Z,11.85
2019-03-15T00:30:57.870Z,11.88
2019-03-15T00:31:57.799Z,11.82
2019-03-15T00:32:58.566Z,11.83
2019-03-15T00:33:57.650Z,11.86
2019-03-15T00:34:57.574Z,11.75
2019-03-15T00:35:57.504Z,11.82
2019-03-15T00:36:57.428Z,11.78
2019-03-15T00:37:57.357Z,11.75
2019-03-15T00:38:57.284Z,11.80
2019-03-15T00:39:57.204Z,11.64
2019-03-15T00:40:57.133Z,11.64
2019-03-15T00:41:57.066Z,11.62
2019-03-15T00:42:56.989Z,11.61
2019-03-15T00:43:56.919Z,11.55
2019-03-15T00:44:56.839Z,11.57
2019-03-15T00:45:56.770Z,11.60
2019-03-15T00:46:56.693Z,11.62
2019-03-15T00:47:56.621Z,11.70
2019-03-15T00:48:56.547Z,11.65
2019-03-15T00:49:56.471Z,11.90
2019-03-15T00:50:56.397Z,11.75
2019-03-15T00:51:56.320Z,11.80
2019-03-15T00:52:56.253Z,11.78
2019-03-15T00:53:56.179Z,11.88
2019-03-15T00:54:56.103Z,11.82
2019-03-15T00:55:56.026Z,11.88
2019-03-15T00:56:55.956Z,11.86
2019-03-15T00:57:55.899Z,11.86
2019-03-15T00:58:55.808Z,11.85
2019-03-15T00:59:55.737Z,11.82
2019-03-15T01:00:55.657Z,11.69
2019-03-15T01:01:55.592Z,11.65
2019-03-15T01:02:55.518Z,11.72
2019-03-15T01:03:55.443Z,11.70
2019-03-15T01:04:55.369Z,11.62
2019-03-15T01:05:55.402Z,11.58
2019-03-15T01:06:55.219Z,11.69
2019-03-15T01:07:55.150Z,11.57
2019-03-15T01:08:55.075Z,11.62
2019-03-15T01:09:55.008Z,11.61
2019-03-15T01:10:54.923Z,11.52
2019-03-15T01:11:54.850Z,11.60
2019-03-15T01:12:54.780Z,11.62
2019-03-15T01:13:54.704Z,11.55
2019-03-15T01:14:54.627Z,11.60
2019-03-15T01:15:54.566Z,11.62
2019-03-15T01:16:54.487Z,11.60
2019-03-15T01:17:54.406Z,11.61
2019-03-15T01:18:54.341Z,11.57
2019-03-15T01:19:54.252Z,11.58
2019-03-15T01:20:54.175Z,11.57
2019-03-15T01:21:54.105Z,11.52
2019-03-15T01:22:54.027Z,11.57
2019-03-15T01:23:53.964Z,11.62
2019-03-15T01:24:53.890Z,11.46
2019-03-15T01:25:53.818Z,11.57
2019-03-15T01:26:53.751Z,11.62
2019-03-15T01:27:53.677Z,11.44
2019-03-15T01:28:53.583Z,11.49
2019-03-15T01:29:53.524Z,11.49
2019-03-15T01:30:53.459Z,11.46
2019-03-15T01:31:53.363Z,11.47
2019-03-15T01:32:53.293Z,11.52
2019-03-15T01:33:53.221Z,11.49
2019-03-15T01:34:53.142Z,11.61
2019-03-15T01:35:53.084Z,11.62
2019-03-15T01:36:53.008Z,11.62
2019-03-15T01:37:52.951Z,11.58
2019-03-15T01:38:52.849Z,11.65
2019-03-15T01:39:52.786Z,11.64
2019-03-15T01:40:52.715Z,11.64
2019-03-15T01:41:52.645Z,11.65
2019-03-15T01:42:52.566Z,11.70
2019-03-15T01:43:52.482Z,11.64
2019-03-15T01:44:53.285Z,11.62
2019-03-15T01:45:52.348Z,11.61
2019-03-15T01:46:52.271Z,11.61
2019-03-15T01:47:52.194Z,11.65
2019-03-15T01:48:52.113Z,11.64
2019-03-15T01:49:52.045Z,11.76
2019-03-15T01:50:51.969Z,11.72
2019-03-15T01:51:51.906Z,11.80
2019-03-15T01:52:51.828Z,11.78
2019-03-15T01:53:51.759Z,11.90
2019-03-15T01:54:51.682Z,11.95
2019-03-15T01:55:51.595Z,11.91
2019-03-15T01:56:51.523Z,11.95
2019-03-15T01:57:51.454Z,11.99
2019-03-15T01:58:51.374Z,12.07
2019-03-15T01:59:51.331Z,12.07
2019-03-15T02:00:51.249Z,12.14
2019-03-15T02:01:51.163Z,12.12
2019-03-15T02:02:51.091Z,12.16
2019-03-15T02:03:51.029Z,12.14
2019-03-15T02:04:50.948Z,12.23
2019-03-15T02:05:51.784Z,12.23
2019-03-15T02:06:50.846Z,12.20
2019-03-15T02:07:50.723Z,12.34
2019-03-15T02:08:50.650Z,12.16
2019-03-15T02:09:50.588Z,12.24
2019-03-15T02:10:50.516Z,12.17
2019-03-15T02:11:50.427Z,12.17
2019-03-15T02:12:50.366Z,12.21
2019-03-15T02:13:50.283Z,12.16
2019-03-15T02:14:50.212Z,12.16
2019-03-15T02:15:50.151Z,12.07
2019-03-15T02:16:50.081Z,12.10
2019-03-15T02:17:49.991Z,11.95
2019-03-15T02:18:49.918Z,11.94
2019-03-15T02:19:49.858Z,12.02
2019-03-15T02:20:49.800Z,12.04
2019-03-15T02:21:49.720Z,12.05
2019-03-15T02:22:49.641Z,11.94
2019-03-15T02:23:49.558Z,12.05
2019-03-15T02:24:49.484Z,11.83
2019-03-15T02:25:49.410Z,11.85
2019-03-15T02:26:49.340Z,11.85
2019-03-15T02:27:49.273Z,11.67
2019-03-15T02:28:49.198Z,11.69
2019-03-15T02:29:49.129Z,11.57
2019-03-15T02:30:49.067Z,11.44
2019-03-15T02:31:48.971Z,11.40
2019-03-15T02:32:48.901Z,11.46
2019-03-15T02:33:48.837Z,11.44
2019-03-15T02:34:48.775Z,11.47
2019-03-15T02:35:48.680Z,11.42
2019-03-15T02:36:48.612Z,11.46
2019-03-15T02:37:48.536Z,11.40
2019-03-15T02:38:48.461Z,11.33
2019-03-15T02:39:48.400Z,11.40
2019-03-15T02:40:48.326Z,11.40
2019-03-15T02:41:48.243Z,11.40
2019-03-15T02:42:48.190Z,11.39
2019-03-15T02:43:48.106Z,11.54
2019-03-15T02:44:48.052Z,11.58
2019-03-15T02:45:47.962Z,11.67
2019-03-15T02:46:47.889Z,11.78
2019-03-15T02:47:47.838Z,11.79
2019-03-15T02:48:47.732Z,11.70
2019-03-15T02:49:47.669Z,11.80
2019-03-15T02:50:47.599Z,11.70
2019-03-15T02:51:47.512Z,11.65
2019-03-15T02:52:47.447Z,11.72
2019-03-15T02:53:47.392Z,11.60
2019-03-15T02:54:47.294Z,11.69
2019-03-15T02:55:48.227Z,11.60
2019-03-15T02:56:47.161Z,11.57
2019-03-15T02:57:47.084Z,11.51
2019-03-15T02:58:47.012Z,11.49
2019-03-15T02:59:47.317Z,11.39
2019-03-15T03:00:46.857Z,11.42
2019-03-15T03:01:46.781Z,11.52
2019-03-15T03:02:46.713Z,11.49
2019-03-15T03:03:47.177Z,11.46
2019-03-15T03:04:46.574Z,11.49
2019-03-15T03:05:46.488Z,11.47
2019-03-15T03:06:46.414Z,11.58
2019-03-15T03:07:47.497Z,11.60
2019-03-15T03:08:46.282Z,11.58
2019-03-15T03:09:46.232Z,11.57
2019-03-15T03:10:46.134Z,11.52
2019-03-15T03:11:46.060Z,11.51
2019-03-15T03:12:45.976Z,11.44
2019-03-15T03:13:45.899Z,11.51
2019-03-15T03:14:45.832Z,11.46
2019-03-15T03:15:45.777Z,11.40
2019-03-15T03:16:46.220Z,11.39
2019-03-15T03:17:45.624Z,11.33
2019-03-15T03:18:45.557Z,11.28
2019-03-15T03:19:45.465Z,11.32
2019-03-15T03:20:45.399Z,11.24
2019-03-15T03:21:45.330Z,11.28
2019-03-15T03:22:45.254Z,11.24
2019-03-15T03:23:45.169Z,11.33
2019-03-15T03:24:45.094Z,11.35
2019-03-15T03:25:45.026Z,11.40
2019-03-15T03:26:44.949Z,11.40
2019-03-15T03:27:44.901Z,11.25
2019-03-15T03:28:44.818Z,11.11
2019-03-15T03:29:44.745Z,11.21
2019-03-15T03:30:46.551Z,11.11
2019-03-15T03:31:45.582Z,11.19
2019-03-15T03:32:44.929Z,11.10
2019-03-15T03:33:44.450Z,11.17
2019-03-15T03:34:44.372Z,11.06
2019-03-15T03:35:44.300Z,11.11
2019-03-15T03:36:44.241Z,11.22
2019-03-15T03:37:45.157Z,11.24
2019-03-15T03:38:44.070Z,11.14
2019-03-15T03:39:44.007Z,11.14
2019-03-15T03:40:43.942Z,11.15
2019-03-15T03:41:43.867Z,11.28
2019-03-15T03:42:43.786Z,11.35
2019-03-15T03:43:43.703Z,11.40
2019-03-15T03:44:43.634Z,11.58
2019-03-15T03:45:43.569Z,11.42
2019-03-15T03:46:43.510Z,11.42
2019-03-15T03:47:43.499Z,11.43
2019-03-15T03:48:43.339Z,11.46
2019-03-15T03:49:43.266Z,11.46
2019-03-15T03:50:43.525Z,11.44
2019-03-15T03:51:43.220Z,11.57
2019-03-15T03:52:43.062Z,11.62
2019-03-15T03:53:42.986Z,11.54
2019-03-15T03:54:42.900Z,11.61
2019-03-15T03:55:42.834Z,11.64
2019-03-15T03:56:43.426Z,11.65
2019-03-15T03:57:42.694Z,11.67
2019-03-15T03:58:42.642Z,11.70
2019-03-15T03:59:42.559Z,11.73
2019-03-15T04:00:42.461Z,11.62
2019-03-15T04:01:42.384Z,11.51
2019-03-15T04:02:42.311Z,11.51
2019-03-15T04:03:42.249Z,11.40
2019-03-15T04:04:42.178Z,11.44
2019-03-15T04:05:42.106Z,11.54
2019-03-15T04:06:42.034Z,11.49
2019-03-15T04:07:41.950Z,11.54
2019-03-15T04:08:41.879Z,11.54
2019-03-15T04:09:41.821Z,11.58
2019-03-15T04:10:41.739Z,11.60
2019-03-15T04:11:54.200Z,11.60
2019-03-15T04:12:41.583Z,11.55
2019-03-15T04:13:41.511Z,11.51
2019-03-15T04:14:41.445Z,11.52
2019-03-15T04:15:41.377Z,11.60
2019-03-15T04:16:41.314Z,11.55
2019-03-15T04:17:41.217Z,11.62
2019-03-15T04:18:41.143Z,11.47
2019-03-15T04:19:41.084Z,11.54
2019-03-15T04:20:41.011Z,11.49
2019-03-15T04:21:40.940Z,11.46
2019-03-15T04:22:40.869Z,11.46
2019-03-15T04:23:40.786Z,11.52
2019-03-15T04:24:40.705Z,11.65
2019-03-15T04:25:40.747Z,11.60
2019-03-15T04:26:40.574Z,11.43
2019-03-15T04:27:40.494Z,11.40
2019-03-15T04:28:40.419Z,11.29
2019-03-15T04:29:40.344Z,11.39
2019-03-15T04:30:40.273Z,11.28
2019-03-15T04:31:40.206Z,11.21
2019-03-15T04:32:40.139Z,11.24
2019-03-15T04:33:40.067Z,11.28
2019-03-15T04:34:39.988Z,11.24
2019-03-15T04:35:39.901Z,11.32
2019-03-15T04:36:39.836Z,11.43
2019-03-15T04:37:39.760Z,11.43
2019-03-15T04:38:39.688Z,11.39
2019-03-15T04:39:39.626Z,11.46
2019-03-15T04:40:39.552Z,11.54
2019-03-15T04:41:39.471Z,11.57
2019-03-15T04:42:39.394Z,11.61
2019-03-15T04:43:39.329Z,11.67
2019-03-15T04:44:39.261Z,11.61
2019-03-15T04:45:39.189Z,11.60
2019-03-15T04:46:39.117Z,11.60
2019-03-15T04:47:39.023Z,11.37
2019-03-15T04:48:38.952Z,11.46
2019-03-15T04:49:38.943Z,11.44
2019-03-15T04:50:38.821Z,11.49
2019-03-15T04:51:38.732Z,11.46
2019-03-15T04:52:38.659Z,11.37
2019-03-15T04:53:38.587Z,11.46
2019-03-15T04:54:38.518Z,11.43
2019-03-15T04:55:38.459Z,11.47
2019-03-15T04:56:38.383Z,11.44
2019-03-15T04:57:38.295Z,11.44
2019-03-15T04:58:38.220Z,11.24
2019-03-15T04:59:38.162Z,11.24
2019-03-15T05:00:38.092Z,11.27
2019-03-15T05:01:38.018Z,11.39
2019-03-15T05:02:37.941Z,11.40
2019-03-15T05:03:37.866Z,11.40
2019-03-15T05:04:37.784Z,11.40
2019-03-15T05:05:37.708Z,11.42
2019-03-15T05:06:37.660Z,11.54
2019-03-15T05:07:37.576Z,11.49
2019-03-15T05:08:37.505Z,11.43
2019-03-15T05:09:37.435Z,11.40
2019-03-15T05:10:37.358Z,11.47
2019-03-15T05:11:37.270Z,11.43
2019-03-15T05:12:37.199Z,11.51
2019-03-15T05:13:37.139Z,11.39
2019-03-15T05:14:37.064Z,11.40
2019-03-15T05:15:36.979Z,11.46
2019-03-15T05:16:36.901Z,11.24
2019-03-15T05:17:36.832Z,11.39
2019-03-15T05:18:36.759Z,11.29
2019-03-15T05:19:36.692Z,11.18
2019-03-15T05:20:36.623Z,11.17
2019-03-15T05:21:36.550Z,11.21
2019-03-15T05:22:36.478Z,11.21
2019-03-15T05:23:36.386Z,11.27
2019-03-15T05:24:36.315Z,11.27
2019-03-15T05:25:36.244Z,11.36
2019-03-15T05:26:36.165Z,11.24
2019-03-15T05:27:36.113Z,11.18
2019-03-15T05:28:36.061Z,11.18
2019-03-15T05:29:35.950Z,11.18
2019-03-15T05:30:35.876Z,11.22
2019-03-15T05:31:35.817Z,11.27
2019-03-15T05:32:35.738Z,11.28
2019-03-15T05:33:35.665Z,11.19
2019-03-15T05:34:35.596Z,11.22
2019-03-15T05:35:35.507Z,11.28
2019-03-15T05:36:35.504Z,11.25
2019-03-15T05:37:35.362Z,11.28
2019-03-15T05:38:35.378Z,11.29
2019-03-15T05:39:35.221Z,11.11
2019-03-15T05:40:35.152Z,11.14
2019-03-15T05:41:35.088Z,11.18
2019-03-15T05:42:35.005Z,11.10
2019-03-15T05:43:34.934Z,11.17
2019-03-15T05:44:34.847Z,11.18
2019-03-15T05:45:34.786Z,11.09
2019-03-15T05:46:34.710Z,11.07
2019-03-15T05:47:34.631Z,11.09
2019-03-15T05:48:34.548Z,11.14
2019-03-15T05:49:34.475Z,11.28
2019-03-15T05:50:34.409Z,11.25
2019-03-15T05:51:34.354Z,11.37
2019-03-15T05:52:34.269Z,11.40
2019-03-15T05:53:34.182Z,11.43
2019-03-15T05:54:34.105Z,11.46
2019-03-15T05:55:34.045Z,11.40
2019-03-15T05:56:33.979Z,11.37
2019-03-15T05:57:33.906Z,11.36
2019-03-15T05:58:33.829Z,11.32
2019-03-15T05:59:33.738Z,11.39
2019-03-15T06:00:33.666Z,11.42
2019-03-15T06:01:33.610Z,11.29
2019-03-15T06:02:33.530Z,11.24
2019-03-15T06:03:33.446Z,11.35
2019-03-15T06:04:33.370Z,11.19
2019-03-15T06:05:33.304Z,11.25
2019-03-15T06:06:33.226Z,11.19
2019-03-15T06:07:33.167Z,11.09
2019-03-15T06:08:33.096Z,11.09
2019-03-15T06:09:33.019Z,11.14
2019-03-15T06:10:32.952Z,11.15
2019-03-15T06:11:32.860Z,11.11
2019-03-15T06:12:32.785Z,11.21
2019-03-15T06:13:32.712Z,11.27
2019-03-15T06:14:32.638Z,11.27
2019-03-15T06:15:32.577Z,11.27
2019-03-15T06:16:32.505Z,11.28
2019-03-15T06:17:32.416Z,11.37
2019-03-15T06:18:32.368Z,11.37
2019-03-15T06:19:32.283Z,11.25
2019-03-15T06:20:32.211Z,11.24
2019-03-15T06:21:32.140Z,11.24
2019-03-15T06:22:32.073Z,11.21
2019-03-15T06:23:31.972Z,11.35
2019-03-15T06:24:31.902Z,11.36
2019-03-15T06:25:31.824Z,11.42
2019-03-15T06:26:31.750Z,11.29
2019-03-15T06:27:31.699Z,11.40
2019-03-15T06:28:31.620Z,11.46
2019-03-15T06:29:31.547Z,11.44
2019-03-15T06:30:31.471Z,11.43
2019-03-15T06:31:31.381Z,11.55
2019-03-15T06:32:31.312Z,11.62
2019-03-15T06:33:31.256Z,11.61
2019-03-15T06:34:31.173Z,11.65
2019-03-15T06:35:31.092Z,11.60
2019-03-15T06:36:31.016Z,11.61
2019-03-15T06:37:30.954Z,11.60
2019-03-15T06:38:33.454Z,11.67
2019-03-15T06:39:30.814Z,11.60
2019-03-15T06:40:30.731Z,11.80
2019-03-15T06:41:30.667Z,11.82
2019-03-15T06:42:30.591Z,11.86
2019-03-15T06:43:30.504Z,11.86
2019-03-15T06:44:30.434Z,11.85
2019-03-15T06:45:31.938Z,11.79
2019-03-15T06:46:30.280Z,11.86
2019-03-15T06:47:30.229Z,11.82
2019-03-15T06:48:30.151Z,11.86
2019-03-15T06:49:30.068Z,11.90
2019-03-15T06:50:29.990Z,11.85
2019-03-15T06:51:29.942Z,11.85
2019-03-15T06:52:29.856Z,11.98
2019-03-15T06:53:29.783Z,11.83
2019-03-15T06:54:29.707Z,11.88
2019-03-15T06:55:29.627Z,11.82
2019-03-15T06:56:29.556Z,11.86
2019-03-15T06:57:29.495Z,12.01
2019-03-15T06:58:29.421Z,11.99
2019-03-15T06:59:29.358Z,12.21
2019-03-15T07:00:29.266Z,12.23
2019-03-15T07:01:29.192Z,12.20
2019-03-15T07:02:29.114Z,12.21
2019-03-15T07:03:29.058Z,12.14
2019-03-15T07:04:28.990Z,12.05
2019-03-15T07:05:28.902Z,12.20
2019-03-15T07:06:28.825Z,12.34
2019-03-15T07:07:28.769Z,12.28
2019-03-15T07:08:28.696Z,12.35
2019-03-15T07:09:30.889Z,12.38
2019-03-15T07:10:28.557Z,12.52
2019-03-15T07:11:28.466Z,12.37
2019-03-15T07:12:28.392Z,12.31
2019-03-15T07:13:28.320Z,12.32
2019-03-15T07:14:28.252Z,12.24
2019-03-15T07:15:28.188Z,12.21
2019-03-15T07:16:28.122Z,12.34
2019-03-15T07:17:28.051Z,12.35
2019-03-15T07:18:27.971Z,12.19
2019-03-15T07:19:30.472Z,12.17
2019-03-15T07:20:27.821Z,12.38
2019-03-15T07:21:27.763Z,12.39
2019-03-15T07:22:27.686Z,12.45
2019-03-15T07:23:27.609Z,12.42
2019-03-15T07:24:27.533Z,12.49
2019-03-15T07:25:27.464Z,12.47
2019-03-15T07:26:27.399Z,12.46
2019-03-15T07:27:27.333Z,12.54
2019-03-15T07:28:27.253Z,12.65
2019-03-15T07:29:27.189Z,12.82
2019-03-15T07:30:27.113Z,12.87
2019-03-15T07:31:27.029Z,12.93
2019-03-15T07:32:26.964Z,12.87
2019-03-15T07:33:26.888Z,12.96
2019-03-15T07:34:26.818Z,12.77
2019-03-15T07:35:26.757Z,12.86
2019-03-15T07:36:26.695Z,12.87
2019-03-15T07:37:26.604Z,13.11
2019-03-15T07:38:26.534Z,13.25
2019-03-15T07:39:26.863Z,13.23
2019-03-15T07:40:26.407Z,13.30
2019-03-15T07:41:26.334Z,13.29
2019-03-15T07:42:26.267Z,13.33
2019-03-15T07:43:26.181Z,13.36
2019-03-15T07:44:26.108Z,13.36
2019-03-15T07:45:26.032Z,13.22
2019-03-15T07:46:25.961Z,13.26
2019-03-15T07:47:25.907Z,13.32
2019-03-15T07:48:26.956Z,13.23
2019-03-15T07:49:25.761Z,13.19
2019-03-15T07:50:25.694Z,13.22
2019-03-15T07:51:25.631Z,13.20
2019-03-15T07:52:25.540Z,13.32
2019-03-15T07:53:25.478Z,13.30
2019-03-15T07:54:37.404Z,13.22
2019-03-15T07:55:25.330Z,13.28
2019-03-15T07:56:28.475Z,13.39
2019-03-15T07:57:25.188Z,13.32
2019-03-15T07:58:25.133Z,13.22
2019-03-15T07:59:27.756Z,13.26
2019-03-15T08:00:24.979Z,13.15
2019-03-15T08:01:24.906Z,13.26
2019-03-15T08:02:24.850Z,13.12
2019-03-15T08:03:24.776Z,13.29
2019-03-15T08:04:24.707Z,13.26
2019-03-15T08:05:24.636Z,13.28
2019-03-15T08:06:34.192Z,13.33
2019-03-15T08:07:35.778Z,13.41
2019-03-15T08:08:24.478Z,13.51
2019-03-15T08:09:24.446Z,13.49
2019-03-15T08:10:24.272Z,13.49
2019-03-15T08:11:24.203Z,13.64
2019-03-15T08:12:24.132Z,13.73
2019-03-15T08:13:24.062Z,13.64
2019-03-15T08:14:24.000Z,13.52
2019-03-15T08:15:23.934Z,13.49
2019-03-15T08:16:23.864Z,13.60
2019-03-15T08:17:23.793Z,13.59
2019-03-15T08:18:23.714Z,13.46
2019-03-15T08:19:23.639Z,13.63
2019-03-15T08:20:23.576Z,13.69
2019-03-15T08:21:23.497Z,13.69
2019-03-15T08:22:23.437Z,13.70
2019-03-15T08:23:23.369Z,13.79
2019-03-15T08:24:23.290Z,13.77
2019-03-15T08:25:23.219Z,13.92
2019-03-15T08:26:23.158Z,13.84
2019-03-15T08:27:23.088Z,13.88
2019-03-15T08:28:23.027Z,13.84
2019-03-15T08:29:22.958Z,13.79
2019-03-15T08:30:22.869Z,13.75
2019-03-15T08:31:23.431Z,13.79
2019-03-15T08:32:22.743Z,13.79
2019-03-15T08:33:22.674Z,13.82
2019-03-15T08:34:22.584Z,13.70
2019-03-15T08:35:24.563Z,13.84
2019-03-15T08:36:22.446Z,13.95
2019-03-15T08:37:22.381Z,13.81
2019-03-15T08:38:22.321Z,13.78
2019-03-15T08:39:22.251Z,14.03
2019-03-15T08:40:25.597Z,13.97
2019-03-15T08:41:22.104Z,13.95
2019-03-15T08:42:22.040Z,14.02
2019-03-15T08:43:21.970Z,14.10
2019-03-15T08:44:21.905Z,14.12
2019-03-15T08:45:21.835Z,14.17
2019-03-15T08:46:21.746Z,14.20
2019-03-15T08:47:21.984Z,14.25
2019-03-15T08:48:21.614Z,14.09
2019-03-15T08:49:21.538Z,14.14
2019-03-15T08:50:24.374Z,14.04
2019-03-15T08:51:21.415Z,13.97
2019-03-15T08:52:21.345Z,13.89
2019-03-15T08:53:21.272Z,13.96
2019-03-15T08:54:21.190Z,14.09
2019-03-15T08:55:21.120Z,14.07
2019-03-15T08:56:21.063Z,14.04
2019-03-15T08:57:20.996Z,14.06
2019-03-15T08:58:22.325Z,13.99
2019-03-15T08:59:20.844Z,14.12
2019-03-15T09:00:20.773Z,14.15
2019-03-15T09:01:23.787Z,14.24
2019-03-15T09:02:20.643Z,14.29
2019-03-15T09:03:27.935Z,14.37
2019-03-15T09:04:21.794Z,14.39
2019-03-15T09:05:20.426Z,14.47
2019-03-15T09:06:20.372Z,14.37
2019-03-15T09:07:20.302Z,14.47
2019-03-15T09:08:20.232Z,14.58
2019-03-15T09:09:20.159Z,14.51
2019-03-15T09:10:23.849Z,14.62
2019-03-15T09:11:20.012Z,14.62
2019-03-15T09:12:19.949Z,14.43
2019-03-15T09:13:19.884Z,14.50
2019-03-15T09:14:19.796Z,14.55
2019-03-15T09:15:19.726Z,14.47
2019-03-15T09:16:19.695Z,14.51
2019-03-15T09:17:20.167Z,14.61
2019-03-15T09:18:19.538Z,14.72
2019-03-15T09:19:19.471Z,14.42
2019-03-15T09:20:19.395Z,14.37
2019-03-15T09:21:19.329Z,14.46
2019-03-15T09:22:19.246Z,14.68
2019-03-15T09:23:19.174Z,14.58
2019-03-15T09:24:19.105Z,14.75
2019-03-15T09:25:20.481Z,14.77
2019-03-15T09:26:18.983Z,14.65
2019-03-15T09:27:18.913Z,14.75
2019-03-15T09:28:18.834Z,14.72
2019-03-15T09:29:18.764Z,14.75
2019-03-15T09:30:23.754Z,14.78
2019-03-15T09:31:18.634Z,14.75
2019-03-15T09:32:18.564Z,14.81
2019-03-15T09:33:18.497Z,14.78
2019-03-15T09:34:18.414Z,14.88
2019-03-15T09:35:18.349Z,14.81
2019-03-15T09:36:18.276Z,14.83
2019-03-15T09:37:18.208Z,14.84
2019-03-15T09:38:18.148Z,14.91
2019-03-15T09:39:18.078Z,15.03
2019-03-15T09:40:18.045Z,15.07
2019-03-15T09:41:31.051Z,14.99
2019-03-15T09:42:17.862Z,15.06
2019-03-15T09:43:17.794Z,15.03
2019-03-15T09:44:17.744Z,15.17
2019-03-15T09:45:17.670Z,15.19
2019-03-15T09:46:17.583Z,15.35
2019-03-15T09:47:17.520Z,15.41
2019-03-15T09:48:17.453Z,15.41
2019-03-15T09:49:17.382Z,15.36
2019-03-15T09:50:29.062Z,15.17
2019-03-15T09:51:17.253Z,15.25
2019-03-15T09:52:17.187Z,15.20
2019-03-15T09:53:17.119Z,15.14
2019-03-15T09:54:17.036Z,15.25
2019-03-15T09:55:16.966Z,15.21
2019-03-15T09:56:16.904Z,15.27
2019-03-15T09:57:16.830Z,15.20
2019-03-15T09:58:16.804Z,15.17
2019-03-15T09:59:19.342Z,15.16
2019-03-15T10:00:16.652Z,15.28
2019-03-15T10:01:33.746Z,15.29
2019-03-15T10:02:29.348Z,15.35
2019-03-15T10:03:22.111Z,15.31
2019-03-15T10:04:17.294Z,15.41
2019-03-15T10:05:16.299Z,15.49
2019-03-15T10:06:19.358Z,15.36
2019-03-15T10:07:16.197Z,15.36
2019-03-15T10:08:16.088Z,15.23
2019-03-15T10:09:16.018Z,15.19
2019-03-15T10:10:18.500Z,15.19
2019-03-15T10:11:15.867Z,15.16
2019-03-15T10:12:15.800Z,15.17
2019-03-15T10:13:15.730Z,15.21
2019-03-15T10:14:15.671Z,15.29
2019-03-15T10:15:15.602Z,15.35
2019-03-15T10:16:15.520Z,15.39
2019-03-15T10:17:15.453Z,15.34
2019-03-15T10:18:15.400Z,15.38
2019-03-15T10:19:15.327Z,15.41
2019-03-15T10:20:15.264Z,15.35
2019-03-15T10:21:15.193Z,15.38
2019-03-15T10:22:15.110Z,15.32
2019-03-15T10:23:15.043Z,15.41
2019-03-15T10:24:15.852Z,15.27
2019-03-15T10:25:14.936Z,15.36
2019-03-15T10:26:15.191Z,15.38
2019-03-15T10:27:14.779Z,15.43
2019-03-15T10:28:14.711Z,15.53
2019-03-15T10:29:17.024Z,15.64
2019-03-15T10:30:14.560Z,15.54
2019-03-15T10:31:14.502Z,15.62
2019-03-15T10:32:14.434Z,15.41
2019-03-15T10:33:14.367Z,15.50
2019-03-15T10:34:14.283Z,15.60
2019-03-15T10:35:14.217Z,15.71
2019-03-15T10:36:14.150Z,15.80
2019-03-15T10:37:14.078Z,15.92
2019-03-15T10:38:16.573Z,16.02
2019-03-15T10:39:13.955Z,15.97
2019-03-15T10:40:13.890Z,15.82
2019-03-15T10:41:13.817Z,15.84
2019-03-15T10:42:13.741Z,16.00
2019-03-15T10:43:13.665Z,16.01
2019-03-15T10:44:13.597Z,16.04
2019-03-15T10:45:13.542Z,16.09
2019-03-15T10:46:13.471Z,15.96
2019-03-15T10:47:13.408Z,16.04
2019-03-15T10:48:24.674Z,15.94
2019-03-15T10:49:13.260Z,15.97
2019-03-15T10:50:13.199Z,16.00
2019-03-15T10:51:13.136Z,15.90
2019-03-15T10:52:13.072Z,15.90
2019-03-15T10:53:12.999Z,15.94
2019-03-15T10:54:12.911Z,15.94
2019-03-15T10:55:12.847Z,15.90
2019-03-15T10:56:12.777Z,15.80
2019-03-15T10:57:12.711Z,15.71
2019-03-15T10:58:12.651Z,15.69
2019-03-15T10:59:12.586Z,15.75
2019-03-15T11:00:12.519Z,15.93
2019-03-15T11:01:12.450Z,15.93
2019-03-15T11:02:12.365Z,15.97
2019-03-15T11:03:13.196Z,15.94
2019-03-15T11:04:12.247Z,15.93
2019-03-15T11:05:12.176Z,15.93
2019-03-15T11:06:12.109Z,15.92
2019-03-15T11:07:12.023Z,16.09
2019-03-15T11:08:11.957Z,16.02
2019-03-15T11:09:11.887Z,15.97
2019-03-15T11:10:11.834Z,16.09
2019-03-15T11:11:11.762Z,16.15
2019-03-15T11:12:11.686Z,16.17
2019-03-15T11:13:11.613Z,16.07
2019-03-15T11:14:11.557Z,16.23
2019-03-15T11:15:11.492Z,16.07
2019-03-15T11:16:11.425Z,15.96
2019-03-15T11:17:11.357Z,15.90
2019-03-15T11:18:11.273Z,15.90
2019-03-15T11:19:11.201Z,15.75
2019-03-15T11:20:11.154Z,15.80
2019-03-15T11:21:11.078Z,15.94
2019-03-15T11:22:11.001Z,15.97
2019-03-15T11:23:10.931Z,15.93
2019-03-15T11:24:10.860Z,16.01
2019-03-15T11:25:10.796Z,16.04
2019-03-15T11:26:13.831Z,16.01
2019-03-15T11:27:10.668Z,16.12
2019-03-15T11:28:10.602Z,16.14
2019-03-15T11:29:10.531Z,16.09
2019-03-15T11:30:10.446Z,16.12
2019-03-15T11:31:10.381Z,16.09
2019-03-15T11:32:10.311Z,16.01
2019-03-15T11:33:10.241Z,16.05
2019-03-15T11:34:10.185Z,16.01
2019-03-15T11:35:10.118Z,16.12
2019-03-15T11:36:10.040Z,16.08
2019-03-15T11:37:09.967Z,16.23
2019-03-15T11:38:09.932Z,16.14
2019-03-15T11:39:09.842Z,16.05
2019-03-15T11:40:09.770Z,16.09
2019-03-15T11:41:09.709Z,16.01
2019-03-15T11:42:09.619Z,16.11
2019-03-15T11:43:09.554Z,16.20
2019-03-15T11:44:09.483Z,16.17
2019-03-15T11:45:09.413Z,16.15
2019-03-15T11:46:09.354Z,16.24
2019-03-15T11:47:09.317Z,16.24
2019-03-15T11:48:09.248Z,16.28
2019-03-15T11:49:09.152Z,16.17
2019-03-15T11:50:09.074Z,16.24
2019-03-15T11:51:09.009Z,16.35
2019-03-15T11:52:08.940Z,16.31
2019-03-15T11:53:08.875Z,16.30
2019-03-15T11:54:08.807Z,16.34
2019-03-15T11:55:08.725Z,16.28
2019-03-15T11:56:08.661Z,16.50
2019-03-15T11:57:08.585Z,16.38
2019-03-15T11:58:08.529Z,16.49
2019-03-15T11:59:08.462Z,16.43
2019-03-15T12:00:08.393Z,16.46
2019-03-15T12:01:08.327Z,16.34
2019-03-15T12:02:10.684Z,16.38
2019-03-15T12:03:08.178Z,16.46
2019-03-15T12:04:08.119Z,16.46
2019-03-15T12:05:08.045Z,16.46
2019-03-15T12:06:07.982Z,16.49
2019-03-15T12:07:10.216Z,16.43
2019-03-15T12:08:07.831Z,16.46
2019-03-15T12:09:07.761Z,16.52
2019-03-15T12:10:07.706Z,16.43
2019-03-15T12:11:07.638Z,16.45
2019-03-15T12:12:07.574Z,16.41
2019-03-15T12:13:07.506Z,16.45
2019-03-15T12:14:07.417Z,16.46
2019-03-15T12:15:07.353Z,16.52
2019-03-15T12:16:07.295Z,16.67
2019-03-15T12:17:07.226Z,16.70
2019-03-15T12:18:08.547Z,16.79
2019-03-15T12:19:07.079Z,16.79
2019-03-15T12:20:07.010Z,16.73
2019-03-15T12:21:06.941Z,16.82
2019-03-15T12:22:06.947Z,16.81
2019-03-15T12:23:06.813Z,16.85
2019-03-15T12:24:06.737Z,16.81
2019-03-15T12:25:06.668Z,16.73
2019-03-15T12:26:09.879Z,16.83
2019-03-15T12:27:06.534Z,16.85
2019-03-15T12:28:06.472Z,16.76
2019-03-15T12:29:06.402Z,16.67
2019-03-15T12:30:06.322Z,16.73
2019-03-15T12:31:06.265Z,16.66
2019-03-15T12:32:06.185Z,16.73
2019-03-15T12:33:06.120Z,16.70
2019-03-15T12:34:06.057Z,16.79
2019-03-15T12:35:06.000Z,16.70
2019-03-15T12:36:05.918Z,16.89
2019-03-15T12:37:05.854Z,16.85
2019-03-15T12:38:05.770Z,16.88
2019-03-15T12:39:05.707Z,16.85
2019-03-15T12:40:05.646Z,16.89
2019-03-15T12:41:05.680Z,16.83
2019-03-15T12:42:05.493Z,16.86
2019-03-15T12:43:05.430Z,16.86
2019-03-15T12:44:05.360Z,16.98
2019-03-15T12:45:05.291Z,16.93
2019-03-15T12:46:05.233Z,17.01
2019-03-15T12:47:06.337Z,17.12
2019-03-15T12:48:05.085Z,16.98
2019-03-15T12:49:05.017Z,17.06
2019-03-15T12:50:04.956Z,17.03
2019-03-15T12:51:04.886Z,17.07